Urb Metropolis, Puerto Rico
Current Conditions -  °F | °C
As of 12:56 PM on Thursday 23 Oct 2014 (Local Time) from TJSJ Reporting Station
Scattered Clouds Scattered Clouds  
Wind Chill: 88°   Ceiling: Unl
Heat Index: 99°   Visibility: 10mi
Dew Point: 76°   Wind: 14mph
Humidity: 67%   Direction: 70°ENE
Pressure: 29.9"   Gusts: NA
Location:  18.4083°N, 65.981°W
Report Text: TJSJ 231656Z 07012KT 10SM FEW036 SCT046 SCT070 31/24 A2990 RMK AO2 SLP124 T03110244
Loading
Personal Weather Stations






























Interactive Weather Map
Tropical Storm Tracking
New forecast layout! Learn more

10-Day Weather Forecast

Advertisements
Track Severe Weather on mobile